Terminal Aerodrome Forecast
Issued by NWS

Home | Current Version | Previous Version | Text Only | Print | Product List | Glossary On
Versions: 1 2 3 4 5 6 7 8 9 10 11 12 13 14 15
000
FTUS45 KREV 251700 RRA
TAFMMH
TAF
KMMH 251741Z 2518/2618 28011KT 6SM -SN SCT030 BKN050
     FM252100 28015G26KT P6SM VCSH SCT030 BKN080
     FM260300 31010KT P6SM FEW220=

USA.gov is the U.S. government's official web portal to all federal, state and local government web resources and services.